sensor_id;sensor_type;location;lat;lon;timestamp;pressure;altitude;pressure_sealevel;temperature;humidity
63088;BME280;49173;43.164;27.786;2022-09-13T00:01:41;100001.72;;;20.25;58.17
63088;BME280;49173;43.164;27.786;2022-09-13T00:04:07;99998.16;;;20.25;58.28
63088;BME280;49173;43.164;27.786;2022-09-13T00:06:33;100004.75;;;20.22;58.48
63088;BME280;49173;43.164;27.786;2022-09-13T00:08:59;100003.59;;;20.25;58.53
63088;BME280;49173;43.164;27.786;2022-09-13T00:11:28;100000.19;;;20.23;58.57
63088;BME280;49173;43.164;27.786;2022-09-13T00:13:54;99999.28;;;20.22;58.60
63088;BME280;49173;43.164;27.786;2022-09-13T00:16:23;100003.19;;;20.20;58.83
63088;BME280;49173;43.164;27.786;2022-09-13T00:18:50;100003.28;;;20.10;59.35
63088;BME280;49173;43.164;27.786;2022-09-13T00:21:18;99998.69;;;20.11;59.39
63088;BME280;49173;43.164;27.786;2022-09-13T00:23:47;100000.47;;;20.02;59.68
63088;BME280;49173;43.164;27.786;2022-09-13T00:26:17;100000.53;;;19.92;60.14
63088;BME280;49173;43.164;27.786;2022-09-13T00:28:43;100001.03;;;19.78;60.65
63088;BME280;49173;43.164;27.786;2022-09-13T00:31:12;100000.41;;;19.66;60.93
63088;BME280;49173;43.164;27.786;2022-09-13T00:33:37;99998.53;;;19.67;60.90
63088;BME280;49173;43.164;27.786;2022-09-13T00:36:09;100000.78;;;19.71;60.88
63088;BME280;49173;43.164;27.786;2022-09-13T00:38:36;99998.78;;;19.73;60.76
63088;BME280;49173;43.164;27.786;2022-09-13T00:41:04;100003.66;;;19.70;60.74
63088;BME280;49173;43.164;27.786;2022-09-13T00:43:50;100013.88;;;19.68;60.68
63088;BME280;49173;43.164;27.786;2022-09-13T00:46:37;100013.38;;;19.72;60.20
63088;BME280;49173;43.164;27.786;2022-09-13T00:49:20;100017.28;;;19.70;59.93
63088;BME280;49173;43.164;27.786;2022-09-13T00:51:53;100018.59;;;19.66;59.72
63088;BME280;49173;43.164;27.786;2022-09-13T00:54:21;100018.47;;;19.67;59.39
63088;BME280;49173;43.164;27.786;2022-09-13T00:56:52;100015.41;;;19.70;58.99
63088;BME280;49173;43.164;27.786;2022-09-13T00:59:40;100021.47;;;19.64;59.26
63088;BME280;49173;43.164;27.786;2022-09-13T01:02:07;100023.50;;;19.53;59.49
63088;BME280;49173;43.164;27.786;2022-09-13T01:04:35;100029.56;;;19.46;59.66
63088;BME280;49173;43.164;27.786;2022-09-13T01:07:09;100028.13;;;19.42;59.75
63088;BME280;49173;43.164;27.786;2022-09-13T01:09:38;100029.28;;;19.40;59.78
63088;BME280;49173;43.164;27.786;2022-09-13T01:14:39;100037.59;;;19.38;59.49
63088;BME280;49173;43.164;27.786;2022-09-13T01:17:07;100028.88;;;19.35;59.17
63088;BME280;49173;43.164;27.786;2022-09-13T01:19:33;100025.59;;;19.31;59.16
63088;BME280;49173;43.164;27.786;2022-09-13T01:27:22;100031.63;;;19.25;58.91
63088;BME280;49173;43.164;27.786;2022-09-13T01:33:08;100033.22;;;19.18;58.43
63088;BME280;49173;43.164;27.786;2022-09-13T01:36:04;100038.09;;;19.14;58.65
63088;BME280;49173;43.164;27.786;2022-09-13T01:38:45;100030.66;;;19.07;58.56
63088;BME280;49173;43.164;27.786;2022-09-13T01:41:23;100032.56;;;18.97;58.68
63088;BME280;49173;43.164;27.786;2022-09-13T01:44:57;100042.31;;;18.89;58.72
63088;BME280;49173;43.164;27.786;2022-09-13T01:47:24;100037.44;;;18.83;59.20
63088;BME280;49173;43.164;27.786;2022-09-13T01:50:36;100036.88;;;18.80;58.86
63088;BME280;49173;43.164;27.786;2022-09-13T01:56:03;100031.00;;;18.84;58.69
63088;BME280;49173;43.164;27.786;2022-09-13T02:02:07;100032.00;;;18.83;57.97
63088;BME280;49173;43.164;27.786;2022-09-13T02:04:40;100024.59;;;18.76;57.77
63088;BME280;49173;43.164;27.786;2022-09-13T02:07:18;100021.41;;;18.61;57.42
63088;BME280;49173;43.164;27.786;2022-09-13T02:09:51;100020.28;;;18.54;56.79
63088;BME280;49173;43.164;27.786;2022-09-13T02:12:24;100020.56;;;18.51;56.46
63088;BME280;49173;43.164;27.786;2022-09-13T02:15:11;100020.84;;;18.48;55.99
63088;BME280;49173;43.164;27.786;2022-09-13T02:17:53;100026.84;;;18.51;55.34
63088;BME280;49173;43.164;27.786;2022-09-13T02:20:25;100014.97;;;18.52;54.90
63088;BME280;49173;43.164;27.786;2022-09-13T02:22:57;100014.25;;;18.50;54.15
63088;BME280;49173;43.164;27.786;2022-09-13T02:25:26;100016.44;;;18.47;53.42
63088;BME280;49173;43.164;27.786;2022-09-13T02:27:57;100018.69;;;18.42;53.65
63088;BME280;49173;43.164;27.786;2022-09-13T02:30:27;100025.41;;;18.37;53.76
63088;BME280;49173;43.164;27.786;2022-09-13T02:32:59;100020.69;;;18.30;54.06
63088;BME280;49173;43.164;27.786;2022-09-13T02:36:07;100025.13;;;18.21;54.76
63088;BME280;49173;43.164;27.786;2022-09-13T02:38:30;100021.53;;;18.11;56.15
63088;BME280;49173;43.164;27.786;2022-09-13T02:41:01;100018.81;;;18.01;56.71
63088;BME280;49173;43.164;27.786;2022-09-13T02:43:38;100019.06;;;17.89;56.71
63088;BME280;49173;43.164;27.786;2022-09-13T02:51:51;100026.03;;;17.72;57.85
63088;BME280;49173;43.164;27.786;2022-09-13T02:55:06;100034.66;;;17.56;57.93
63088;BME280;49173;43.164;27.786;2022-09-13T02:57:35;100029.78;;;17.50;58.26
63088;BME280;49173;43.164;27.786;2022-09-13T03:00:06;100029.84;;;17.39;58.39
63088;BME280;49173;43.164;27.786;2022-09-13T03:02:33;100025.97;;;17.32;58.82
63088;BME280;49173;43.164;27.786;2022-09-13T03:05:00;100023.09;;;17.23;59.14
63088;BME280;49173;43.164;27.786;2022-09-13T03:07:27;100036.47;;;17.15;59.14
63088;BME280;49173;43.164;27.786;2022-09-13T03:09:56;100027.88;;;17.10;59.26
63088;BME280;49173;43.164;27.786;2022-09-13T03:24:27;100032.31;;;16.90;59.29
63088;BME280;49173;43.164;27.786;2022-09-13T03:29:54;100033.38;;;16.78;59.82
63088;BME280;49173;43.164;27.786;2022-09-13T03:35:16;100045.97;;;16.68;59.97
63088;BME280;49173;43.164;27.786;2022-09-13T03:38:05;100046.63;;;16.60;60.09
63088;BME280;49173;43.164;27.786;2022-09-13T03:45:43;100054.41;;;16.54;60.32
63088;BME280;49173;43.164;27.786;2022-09-13T03:48:11;100054.53;;;16.52;60.57
63088;BME280;49173;43.164;27.786;2022-09-13T03:50:38;100062.06;;;16.48;60.58
63088;BME280;49173;43.164;27.786;2022-09-13T03:53:14;100062.81;;;16.51;60.42
63088;BME280;49173;43.164;27.786;2022-09-13T03:55:43;100060.94;;;16.51;60.84
63088;BME280;49173;43.164;27.786;2022-09-13T03:58:11;100061.47;;;16.45;60.91
63088;BME280;49173;43.164;27.786;2022-09-13T04:00:38;100074.28;;;16.43;61.00
63088;BME280;49173;43.164;27.786;2022-09-13T04:03:06;100075.25;;;16.42;61.18
63088;BME280;49173;43.164;27.786;2022-09-13T04:05:32;100080.56;;;16.43;61.40
63088;BME280;49173;43.164;27.786;2022-09-13T04:08:03;100080.44;;;16.45;61.04
63088;BME280;49173;43.164;27.786;2022-09-13T04:10:33;100077.00;;;16.43;61.13
63088;BME280;49173;43.164;27.786;2022-09-13T04:13:00;100080.44;;;16.45;60.99
63088;BME280;49173;43.164;27.786;2022-09-13T04:15:31;100081.16;;;16.47;61.04
63088;BME280;49173;43.164;27.786;2022-09-13T04:17:57;100080.78;;;16.52;61.37
63088;BME280;49173;43.164;27.786;2022-09-13T04:20:23;100083.69;;;16.60;61.08
63088;BME280;49173;43.164;27.786;2022-09-13T04:22:51;100086.75;;;16.66;61.08
63088;BME280;49173;43.164;27.786;2022-09-13T04:25:17;100080.69;;;16.74;61.40
63088;BME280;49173;43.164;27.786;2022-09-13T04:27:43;100084.75;;;17.21;60.56
63088;BME280;49173;43.164;27.786;2022-09-13T04:30:09;100079.63;;;18.49;57.30
63088;BME280;49173;43.164;27.786;2022-09-13T04:32:36;100085.53;;;19.96;53.14
63088;BME280;49173;43.164;27.786;2022-09-13T04:35:01;100087.84;;;21.25;49.52
63088;BME280;49173;43.164;27.786;2022-09-13T04:37:27;100085.66;;;21.81;47.05
63088;BME280;49173;43.164;27.786;2022-09-13T04:39:53;100082.03;;;21.72;46.94
63088;BME280;49173;43.164;27.786;2022-09-13T04:42:19;100085.03;;;21.35;47.91
63088;BME280;49173;43.164;27.786;2022-09-13T04:44:45;100079.94;;;20.96;48.73
63088;BME280;49173;43.164;27.786;2022-09-13T04:47:14;100083.38;;;20.63;49.85
63088;BME280;49173;43.164;27.786;2022-09-13T04:49:40;100088.00;;;20.35;50.61
63088;BME280;49173;43.164;27.786;2022-09-13T04:52:06;100085.03;;;20.10;50.96
63088;BME280;49173;43.164;27.786;2022-09-13T04:54:32;100088.16;;;19.88;51.70
63088;BME280;49173;43.164;27.786;2022-09-13T04:56:58;100092.41;;;19.63;52.92
63088;BME280;49173;43.164;27.786;2022-09-13T04:59:24;100102.31;;;19.44;52.91
63088;BME280;49173;43.164;27.786;2022-09-13T05:01:50;100096.63;;;19.28;53.09
63088;BME280;49173;43.164;27.786;2022-09-13T05:04:15;100093.47;;;19.23;53.54
63088;BME280;49173;43.164;27.786;2022-09-13T05:06:41;100094.66;;;19.11;53.76
63088;BME280;49173;43.164;27.786;2022-09-13T05:09:12;100096.38;;;19.02;54.14
63088;BME280;49173;43.164;27.786;2022-09-13T05:11:38;100092.94;;;19.00;54.06
63088;BME280;49173;43.164;27.786;2022-09-13T05:14:03;100096.41;;;18.92;54.00
63088;BME280;49173;43.164;27.786;2022-09-13T05:16:31;100098.56;;;18.89;53.94
63088;BME280;49173;43.164;27.786;2022-09-13T05:18:58;100106.72;;;18.89;54.30
63088;BME280;49173;43.164;27.786;2022-09-13T05:21:25;100102.88;;;18.82;54.27
63088;BME280;49173;43.164;27.786;2022-09-13T05:23:53;100103.72;;;18.82;54.22
63088;BME280;49173;43.164;27.786;2022-09-13T05:26:21;100106.72;;;18.89;53.23
63088;BME280;49173;43.164;27.786;2022-09-13T05:28:47;100103.84;;;18.90;52.69
63088;BME280;49173;43.164;27.786;2022-09-13T05:31:18;100107.59;;;18.89;52.45
63088;BME280;49173;43.164;27.786;2022-09-13T05:33:46;100105.56;;;18.91;52.71
63088;BME280;49173;43.164;27.786;2022-09-13T05:36:13;100105.72;;;18.90;52.26
63088;BME280;49173;43.164;27.786;2022-09-13T05:38:39;100104.25;;;18.96;52.46
63088;BME280;49173;43.164;27.786;2022-09-13T05:41:05;100098.69;;;18.97;52.49
63088;BME280;49173;43.164;27.786;2022-09-13T05:43:34;100103.56;;;19.03;52.48
63088;BME280;49173;43.164;27.786;2022-09-13T05:46:05;100101.41;;;19.07;52.42
63088;BME280;49173;43.164;27.786;2022-09-13T05:48:32;100093.34;;;19.15;51.98
63088;BME280;49173;43.164;27.786;2022-09-13T05:53:32;100101.66;;;19.23;52.04
63088;BME280;49173;43.164;27.786;2022-09-13T05:55:58;100099.94;;;19.32;51.82
63088;BME280;49173;43.164;27.786;2022-09-13T05:58:23;100105.50;;;19.40;51.17
63088;BME280;49173;43.164;27.786;2022-09-13T06:00:53;100106.47;;;19.48;51.05
63088;BME280;49173;43.164;27.786;2022-09-13T06:03:21;100106.88;;;19.54;51.08
63088;BME280;49173;43.164;27.786;2022-09-13T06:05:47;100108.19;;;19.59;51.09
63088;BME280;49173;43.164;27.786;2022-09-13T06:08:13;100116.31;;;19.69;50.85
63088;BME280;49173;43.164;27.786;2022-09-13T06:10:39;100112.00;;;19.76;50.53
63088;BME280;49173;43.164;27.786;2022-09-13T06:13:05;100114.81;;;19.84;50.42
63088;BME280;49173;43.164;27.786;2022-09-13T06:15:33;100117.50;;;19.94;50.38
63088;BME280;49173;43.164;27.786;2022-09-13T06:18:06;100122.75;;;20.05;49.93
63088;BME280;49173;43.164;27.786;2022-09-13T06:20:32;100119.13;;;20.14;49.62
63088;BME280;49173;43.164;27.786;2022-09-13T06:22:58;100127.25;;;20.24;49.43
63088;BME280;49173;43.164;27.786;2022-09-13T06:25:24;100118.84;;;20.35;49.12
63088;BME280;49173;43.164;27.786;2022-09-13T06:27:49;100121.56;;;20.45;48.75
63088;BME280;49173;43.164;27.786;2022-09-13T06:30:15;100122.66;;;20.52;48.34
63088;BME280;49173;43.164;27.786;2022-09-13T06:32:41;100115.56;;;20.59;48.23
63088;BME280;49173;43.164;27.786;2022-09-13T06:35:07;100117.19;;;20.70;48.30
63088;BME280;49173;43.164;27.786;2022-09-13T06:37:33;100110.28;;;20.75;47.58
63088;BME280;49173;43.164;27.786;2022-09-13T06:39:59;100119.38;;;20.84;47.06
63088;BME280;49173;43.164;27.786;2022-09-13T06:42:24;100122.69;;;20.88;48.45
63088;BME280;49173;43.164;27.786;2022-09-13T06:44:50;100122.75;;;20.96;48.74
63088;BME280;49173;43.164;27.786;2022-09-13T06:47:16;100119.38;;;21.02;48.91
63088;BME280;49173;43.164;27.786;2022-09-13T06:49:41;100124.63;;;20.95;48.81
63088;BME280;49173;43.164;27.786;2022-09-13T06:52:07;100121.72;;;20.97;48.87
63088;BME280;49173;43.164;27.786;2022-09-13T06:54:33;100127.25;;;21.05;49.54
63088;BME280;49173;43.164;27.786;2022-09-13T06:56:59;100125.06;;;21.08;48.89
63088;BME280;49173;43.164;27.786;2022-09-13T06:59:27;100124.06;;;21.09;49.07
63088;BME280;49173;43.164;27.786;2022-09-13T07:01:53;100126.63;;;21.11;49.14
63088;BME280;49173;43.164;27.786;2022-09-13T07:04:18;100124.13;;;21.18;49.59
63088;BME280;49173;43.164;27.786;2022-09-13T07:06:46;100131.34;;;21.27;49.30
63088;BME280;49173;43.164;27.786;2022-09-13T07:09:16;100126.53;;;21.21;48.60
63088;BME280;49173;43.164;27.786;2022-09-13T07:11:43;100129.41;;;21.19;49.38
63088;BME280;49173;43.164;27.786;2022-09-13T07:14:18;100122.63;;;21.23;50.18
63088;BME280;49173;43.164;27.786;2022-09-13T07:16:45;100119.56;;;21.26;49.68
63088;BME280;49173;43.164;27.786;2022-09-13T07:19:24;100115.81;;;21.27;49.21
63088;BME280;49173;43.164;27.786;2022-09-13T07:21:54;100130.34;;;21.28;50.26
63088;BME280;49173;43.164;27.786;2022-09-13T07:24:21;100129.03;;;21.32;50.74
63088;BME280;49173;43.164;27.786;2022-09-13T07:26:48;100125.97;;;21.35;50.58
63088;BME280;49173;43.164;27.786;2022-09-13T07:29:17;100122.59;;;21.41;50.85
63088;BME280;49173;43.164;27.786;2022-09-13T07:31:47;100126.06;;;21.43;50.15
63088;BME280;49173;43.164;27.786;2022-09-13T07:34:18;100122.31;;;21.44;50.07
63088;BME280;49173;43.164;27.786;2022-09-13T07:36:45;100123.00;;;21.46;50.21
63088;BME280;49173;43.164;27.786;2022-09-13T07:39:15;100116.03;;;21.52;47.95
63088;BME280;49173;43.164;27.786;2022-09-13T07:41:42;100125.56;;;21.48;47.08
63088;BME280;49173;43.164;27.786;2022-09-13T07:44:11;100125.72;;;21.46;46.37
63088;BME280;49173;43.164;27.786;2022-09-13T07:46:37;100128.72;;;21.35;46.57
63088;BME280;49173;43.164;27.786;2022-09-13T07:49:10;100133.00;;;21.20;46.98
63088;BME280;49173;43.164;27.786;2022-09-13T07:51:37;100128.78;;;21.25;47.78
63088;BME280;49173;43.164;27.786;2022-09-13T07:54:09;100132.78;;;21.31;47.87
63088;BME280;49173;43.164;27.786;2022-09-13T07:56:37;100136.97;;;21.43;47.21
63088;BME280;49173;43.164;27.786;2022-09-13T07:59:06;100131.53;;;21.43;47.00
63088;BME280;49173;43.164;27.786;2022-09-13T08:01:35;100127.78;;;21.44;46.86
63088;BME280;49173;43.164;27.786;2022-09-13T08:04:03;100130.50;;;21.44;46.78
63088;BME280;49173;43.164;27.786;2022-09-13T08:06:31;100132.59;;;21.50;46.72
63088;BME280;49173;43.164;27.786;2022-09-13T08:08:58;100132.47;;;21.60;47.10
63088;BME280;49173;43.164;27.786;2022-09-13T08:11:30;100125.53;;;21.65;46.57
63088;BME280;49173;43.164;27.786;2022-09-13T08:13:57;100132.34;;;21.70;46.05
63088;BME280;49173;43.164;27.786;2022-09-13T08:16:24;100134.06;;;21.71;46.29
63088;BME280;49173;43.164;27.786;2022-09-13T08:18:53;100127.44;;;21.73;46.00
63088;BME280;49173;43.164;27.786;2022-09-13T08:21:21;100125.22;;;21.77;46.74
63088;BME280;49173;43.164;27.786;2022-09-13T08:23:47;100120.13;;;21.82;47.63
63088;BME280;49173;43.164;27.786;2022-09-13T08:26:13;100123.56;;;21.84;46.92
63088;BME280;49173;43.164;27.786;2022-09-13T08:28:40;100125.13;;;21.86;45.47
63088;BME280;49173;43.164;27.786;2022-09-13T08:31:12;100115.22;;;21.85;45.15
63088;BME280;49173;43.164;27.786;2022-09-13T08:33:44;100115.03;;;21.87;45.21
63088;BME280;49173;43.164;27.786;2022-09-13T08:36:11;100116.06;;;21.86;45.20
63088;BME280;49173;43.164;27.786;2022-09-13T08:38:37;100113.47;;;21.84;45.38
63088;BME280;49173;43.164;27.786;2022-09-13T08:44:31;100108.09;;;21.92;45.83
63088;BME280;49173;43.164;27.786;2022-09-13T08:49:50;100096.47;;;21.99;45.36
63088;BME280;49173;43.164;27.786;2022-09-13T08:52:29;100095.97;;;22.03;44.97
63088;BME280;49173;43.164;27.786;2022-09-13T08:54:59;100085.97;;;22.12;45.21
63088;BME280;49173;43.164;27.786;2022-09-13T08:57:50;100092.00;;;22.24;44.80
63088;BME280;49173;43.164;27.786;2022-09-13T09:00:20;100093.38;;;22.28;44.55
63088;BME280;49173;43.164;27.786;2022-09-13T09:05:47;100081.25;;;22.38;44.12
63088;BME280;49173;43.164;27.786;2022-09-13T09:10:54;100087.28;;;22.42;44.34
63088;BME280;49173;43.164;27.786;2022-09-13T09:16:00;100070.16;;;22.40;44.28
63088;BME280;49173;43.164;27.786;2022-09-13T09:18:34;100072.75;;;22.41;43.83
63088;BME280;49173;43.164;27.786;2022-09-13T09:21:01;100068.31;;;22.48;44.23
63088;BME280;49173;43.164;27.786;2022-09-13T09:23:52;100071.91;;;22.57;43.65
63088;BME280;49173;43.164;27.786;2022-09-13T09:26:23;100065.75;;;22.63;42.73
63088;BME280;49173;43.164;27.786;2022-09-13T09:28:58;100053.25;;;22.69;42.32
63088;BME280;49173;43.164;27.786;2022-09-13T09:37:35;100056.22;;;23.00;40.22
63088;BME280;49173;43.164;27.786;2022-09-13T09:40:04;100064.41;;;23.16;39.69
63088;BME280;49173;43.164;27.786;2022-09-13T09:42:52;100053.81;;;23.21;39.45
63088;BME280;49173;43.164;27.786;2022-09-13T09:47:52;100052.94;;;23.29;39.27
63088;BME280;49173;43.164;27.786;2022-09-13T09:50:22;100050.00;;;23.39;38.48
63088;BME280;49173;43.164;27.786;2022-09-13T09:53:00;100059.94;;;23.48;38.93
63088;BME280;49173;43.164;27.786;2022-09-13T09:55:29;100060.63;;;23.42;38.31
63088;BME280;49173;43.164;27.786;2022-09-13T09:58:02;100052.59;;;23.40;38.37
63088;BME280;49173;43.164;27.786;2022-09-13T10:00:49;100062.97;;;23.53;39.03
63088;BME280;49173;43.164;27.786;2022-09-13T10:03:27;100057.81;;;23.58;38.33
63088;BME280;49173;43.164;27.786;2022-09-13T10:06:05;100066.75;;;23.52;38.02
63088;BME280;49173;43.164;27.786;2022-09-13T10:08:35;100063.19;;;23.43;37.86
63088;BME280;49173;43.164;27.786;2022-09-13T10:11:02;100060.09;;;23.38;37.07
63088;BME280;49173;43.164;27.786;2022-09-13T10:13:29;100065.41;;;23.32;36.42
63088;BME280;49173;43.164;27.786;2022-09-13T10:16:40;100057.06;;;23.33;37.04
63088;BME280;49173;43.164;27.786;2022-09-13T10:18:46;100062.16;;;23.36;38.26
63088;BME280;49173;43.164;27.786;2022-09-13T10:21:24;100058.22;;;23.47;38.68
63088;BME280;49173;43.164;27.786;2022-09-13T10:23:50;100052.34;;;23.58;38.92
63088;BME280;49173;43.164;27.786;2022-09-13T10:26:19;100045.31;;;23.72;38.75
63088;BME280;49173;43.164;27.786;2022-09-13T10:31:14;100051.56;;;23.97;36.92
63088;BME280;49173;43.164;27.786;2022-09-13T10:33:50;100049.06;;;24.10;36.33
63088;BME280;49173;43.164;27.786;2022-09-13T10:36:27;100057.63;;;24.15;35.51
63088;BME280;49173;43.164;27.786;2022-09-13T10:39:00;100045.28;;;24.19;35.89
63088;BME280;49173;43.164;27.786;2022-09-13T10:41:32;100044.72;;;24.24;36.60
63088;BME280;49173;43.164;27.786;2022-09-13T10:44:00;100046.53;;;24.31;36.69
63088;BME280;49173;43.164;27.786;2022-09-13T10:46:30;100049.66;;;24.36;35.51
63088;BME280;49173;43.164;27.786;2022-09-13T10:48:57;100050.31;;;24.30;34.56
63088;BME280;49173;43.164;27.786;2022-09-13T10:54:24;100044.72;;;24.24;35.08
63088;BME280;49173;43.164;27.786;2022-09-13T10:56:50;100046.91;;;24.28;35.98
63088;BME280;49173;43.164;27.786;2022-09-13T10:59:21;100037.81;;;24.36;35.17
63088;BME280;49173;43.164;27.786;2022-09-13T11:01:57;100039.47;;;24.45;34.92
63088;BME280;49173;43.164;27.786;2022-09-13T11:12:40;100026.31;;;24.41;33.32
63088;BME280;49173;43.164;27.786;2022-09-13T11:15:25;100034.84;;;24.46;33.05
63088;BME280;49173;43.164;27.786;2022-09-13T11:20:56;100028.75;;;24.35;33.07
63088;BME280;49173;43.164;27.786;2022-09-13T11:26:33;100012.41;;;24.42;33.62
63088;BME280;49173;43.164;27.786;2022-09-13T11:32:12;100002.22;;;24.51;33.88
63088;BME280;49173;43.164;27.786;2022-09-13T11:34:55;100011.44;;;24.58;32.93
63088;BME280;49173;43.164;27.786;2022-09-13T11:40:10;100006.38;;;24.70;33.58
63088;BME280;49173;43.164;27.786;2022-09-13T11:45:28;99996.69;;;24.97;32.24
63088;BME280;49173;43.164;27.786;2022-09-13T11:56:14;100002.91;;;24.90;31.65
63088;BME280;49173;43.164;27.786;2022-09-13T12:01:44;99995.53;;;24.91;31.66
63088;BME280;49173;43.164;27.786;2022-09-13T12:04:22;99996.66;;;24.82;31.44
63088;BME280;49173;43.164;27.786;2022-09-13T12:06:54;99992.69;;;24.84;31.28
63088;BME280;49173;43.164;27.786;2022-09-13T12:09:29;99998.81;;;24.86;31.54
63088;BME280;49173;43.164;27.786;2022-09-13T12:12:10;100003.66;;;24.84;31.36
63088;BME280;49173;43.164;27.786;2022-09-13T12:14:48;99998.16;;;24.84;31.91
63088;BME280;49173;43.164;27.786;2022-09-13T12:19:51;100003.28;;;24.87;31.91
63088;BME280;49173;43.164;27.786;2022-09-13T12:22:22;100002.41;;;24.87;32.12
63088;BME280;49173;43.164;27.786;2022-09-13T12:24:57;99998.66;;;24.88;31.91
63088;BME280;49173;43.164;27.786;2022-09-13T12:27:28;99998.47;;;24.89;32.35
63088;BME280;49173;43.164;27.786;2022-09-13T12:32:29;99996.78;;;24.88;31.78
63088;BME280;49173;43.164;27.786;2022-09-13T12:35:06;99996.09;;;24.86;32.43
63088;BME280;49173;43.164;27.786;2022-09-13T12:37:44;100014.44;;;24.86;32.17
63088;BME280;49173;43.164;27.786;2022-09-13T12:40:15;100019.28;;;24.84;33.43
63088;BME280;49173;43.164;27.786;2022-09-13T12:50:59;100020.63;;;24.42;38.28
63088;BME280;49173;43.164;27.786;2022-09-13T13:02:02;100030.38;;;23.74;40.38
63088;BME280;49173;43.164;27.786;2022-09-13T13:04:50;100026.28;;;23.78;40.10
63088;BME280;49173;43.164;27.786;2022-09-13T13:07:21;100030.72;;;23.79;40.33
63088;BME280;49173;43.164;27.786;2022-09-13T13:09:52;100030.38;;;23.82;40.86
63088;BME280;49173;43.164;27.786;2022-09-13T13:12:37;100031.56;;;23.80;40.54
63088;BME280;49173;43.164;27.786;2022-09-13T13:17:56;100035.50;;;23.86;40.59
63088;BME280;49173;43.164;27.786;2022-09-13T13:23:25;100032.13;;;23.75;41.31
63088;BME280;49173;43.164;27.786;2022-09-13T13:36:50;100054.13;;;23.35;42.26
63088;BME280;49173;43.164;27.786;2022-09-13T13:59:56;100060.69;;;22.93;42.85
63088;BME280;49173;43.164;27.786;2022-09-13T14:08:18;100065.63;;;22.89;43.21
63088;BME280;49173;43.164;27.786;2022-09-13T14:19:00;100070.22;;;22.81;43.01
63088;BME280;49173;43.164;27.786;2022-09-13T14:21:31;100069.19;;;22.73;43.16
63088;BME280;49173;43.164;27.786;2022-09-13T14:24:20;100075.31;;;22.67;43.26
63088;BME280;49173;43.164;27.786;2022-09-13T14:26:52;100071.25;;;22.71;43.71
63088;BME280;49173;43.164;27.786;2022-09-13T14:29:21;100073.81;;;22.73;43.50
63088;BME280;49173;43.164;27.786;2022-09-13T14:31:49;100074.66;;;22.73;44.09
63088;BME280;49173;43.164;27.786;2022-09-13T14:34:32;100061.66;;;22.67;44.00
63088;BME280;49173;43.164;27.786;2022-09-13T14:37:03;100074.28;;;22.68;44.32
63088;BME280;49173;43.164;27.786;2022-09-13T14:39:30;100071.25;;;22.63;44.42
63088;BME280;49173;43.164;27.786;2022-09-13T14:42:05;100064.38;;;22.59;44.64
63088;BME280;49173;43.164;27.786;2022-09-13T14:44:36;100061.81;;;22.50;44.93
63088;BME280;49173;43.164;27.786;2022-09-13T14:49:49;100063.53;;;22.51;45.17
63088;BME280;49173;43.164;27.786;2022-09-13T14:52:27;100060.91;;;22.41;44.92
63088;BME280;49173;43.164;27.786;2022-09-13T14:55:01;100070.88;;;22.42;44.98
63088;BME280;49173;43.164;27.786;2022-09-13T14:57:31;100077.50;;;22.39;44.76
63088;BME280;49173;43.164;27.786;2022-09-13T15:00:14;100073.56;;;22.34;44.81
63088;BME280;49173;43.164;27.786;2022-09-13T15:02:49;100080.94;;;22.41;44.67
63088;BME280;49173;43.164;27.786;2022-09-13T15:05:18;100083.81;;;22.40;44.66
63088;BME280;49173;43.164;27.786;2022-09-13T15:07:44;100098.03;;;22.43;44.73
63088;BME280;49173;43.164;27.786;2022-09-13T15:18:30;100084.53;;;22.42;45.28
63088;BME280;49173;43.164;27.786;2022-09-13T15:23:30;100084.34;;;22.35;45.48
63088;BME280;49173;43.164;27.786;2022-09-13T15:26:11;100098.16;;;22.34;45.64
63088;BME280;49173;43.164;27.786;2022-09-13T15:31:06;100096.47;;;22.41;45.63
63088;BME280;49173;43.164;27.786;2022-09-13T15:33:33;100100.09;;;22.41;45.44
63088;BME280;49173;43.164;27.786;2022-09-13T15:39:00;100107.59;;;22.47;45.62
63088;BME280;49173;43.164;27.786;2022-09-13T15:41:31;100106.41;;;22.42;45.50
63088;BME280;49173;43.164;27.786;2022-09-13T15:43:59;100106.25;;;22.43;45.28
63088;BME280;49173;43.164;27.786;2022-09-13T15:46:26;100107.75;;;22.38;45.67
63088;BME280;49173;43.164;27.786;2022-09-13T15:49:00;100106.38;;;22.34;45.92
63088;BME280;49173;43.164;27.786;2022-09-13T15:51:27;100098.50;;;22.23;46.13
63088;BME280;49173;43.164;27.786;2022-09-13T15:53:53;100100.47;;;22.12;46.17
63088;BME280;49173;43.164;27.786;2022-09-13T15:56:21;100106.66;;;22.14;46.65
63088;BME280;49173;43.164;27.786;2022-09-13T15:58:51;100111.09;;;22.15;46.69
63088;BME280;49173;43.164;27.786;2022-09-13T16:01:17;100109.72;;;22.11;46.49
63088;BME280;49173;43.164;27.786;2022-09-13T16:03:43;100114.44;;;22.01;46.82
63088;BME280;49173;43.164;27.786;2022-09-13T16:06:09;100121.56;;;21.94;47.29
63088;BME280;49173;43.164;27.786;2022-09-13T16:08:36;100118.25;;;21.82;47.64
63088;BME280;49173;43.164;27.786;2022-09-13T16:11:02;100110.41;;;21.79;47.65
63088;BME280;49173;43.164;27.786;2022-09-13T16:13:28;100115.31;;;21.76;47.95
63088;BME280;49173;43.164;27.786;2022-09-13T16:16:03;100117.03;;;21.77;48.13
63088;BME280;49173;43.164;27.786;2022-09-13T16:18:31;100123.84;;;21.73;48.20
63088;BME280;49173;43.164;27.786;2022-09-13T16:20:57;100122.63;;;21.67;48.14
63088;BME280;49173;43.164;27.786;2022-09-13T16:23:23;100119.34;;;21.63;48.28